Time;durP1;ratioP1;P1;durP2;ratioP2;P2;SDS_P1;SDS_P2;PMS_P1;PMS_P2;Temp;Humidity;BMP_temperature;BMP_pressure;BME280_temperature;BME280_humidity;BME280_pressure;Samples;Min_cycle;Max_cycle;Signal;HPM_P1;HPM_P2
2022/08/12 00:43:05;;;;;;;2.50;2.30;;;26.50;90.30;;;;;;4227513;28;20552;-71
2022/08/12 00:45:08;;;;;;;2.85;2.55;;;26.50;90.10;;;;;;4212980;28;20775;-71
2022/08/12 00:47:13;;;;;;;2.90;2.60;;;26.50;90.10;;;;;;4216965;28;20210;-71
2022/08/12 00:49:17;;;;;;;2.97;2.67;;;26.50;90.30;;;;;;4225802;27;20570;-71
2022/08/12 00:51:19;;;;;;;3.22;2.50;;;26.50;90.20;;;;;;4224857;28;20555;-71
2022/08/12 00:53:23;;;;;;;3.45;2.40;;;26.50;90.40;;;;;;4217758;28;20619;-71
2022/08/12 00:55:25;;;;;;;2.50;2.25;;;26.50;90.50;;;;;;4218241;28;20218;-71
2022/08/12 00:57:29;;;;;;;2.63;2.20;;;26.50;90.40;;;;;;4216114;28;20214;-71
2022/08/12 00:59:32;;;;;;;2.40;2.20;;;26.50;90.40;;;;;;4216062;28;20214;-71
2022/08/12 01:01:36;;;;;;;5.47;2.53;;;26.50;90.50;;;;;;4219321;28;20214;-71
2022/08/12 01:13:03;;;;;;;2.75;2.42;;;26.50;90.80;;;;;;4223774;28;20198;-71
2022/08/12 01:15:06;;;;;;;2.40;2.20;;;26.50;90.50;;;;;;4218518;28;20630;-71
2022/08/12 01:17:08;;;;;;;3.42;2.80;;;26.40;90.40;;;;;;4219516;28;20213;-71
2022/08/12 01:19:13;;;;;;;2.72;2.17;;;26.40;90.70;;;;;;4223322;28;20626;-71
2022/08/12 01:21:27;;;;;;;3.45;2.30;;;26.40;90.60;;;;;;4228658;28;20214;-71
2022/08/12 01:23:40;;;;;;;2.72;2.53;;;26.40;90.70;;;;;;4215513;28;20218;-71
2022/08/12 01:25:47;;;;;;;3.38;2.55;;;26.40;90.60;;;;;;4213755;28;20271;-71
2022/08/12 01:27:51;;;;;;;2.95;2.70;;;26.40;90.70;;;;;;4223753;28;20239;-71
2022/08/12 01:29:57;;;;;;;3.03;2.17;;;26.40;90.60;;;;;;4227309;27;20214;-71
2022/08/12 01:32:05;;;;;;;2.67;2.45;;;26.40;90.60;;;;;;4228413;27;20214;-71
2022/08/12 01:34:11;;;;;;;3.10;2.45;;;26.40;91.00;;;;;;4228465;28;20217;-71
2022/08/12 01:36:17;;;;;;;2.60;2.40;;;26.40;90.80;;;;;;4228394;28;20210;-71
2022/08/12 01:38:22;;;;;;;3.00;2.70;;;26.40;90.90;;;;;;4228596;28;20209;-71
2022/08/12 01:40:29;;;;;;;2.75;2.30;;;26.40;90.80;;;;;;4228322;28;20675;-71
2022/08/12 01:42:42;;;;;;;2.22;2.03;;;26.40;91.00;;;;;;4228395;28;20624;-71
2022/08/12 01:44:45;;;;;;;2.42;2.20;;;26.40;90.90;;;;;;4217188;28;20622;-71
2022/08/12 01:46:57;;;;;;;3.25;2.33;;;26.40;90.80;;;;;;4228186;28;20271;-71
2022/08/12 01:49:14;;;;;;;2.67;2.47;;;26.30;91.00;;;;;;4219192;28;20238;-71
2022/08/12 01:51:30;;;;;;;3.20;2.30;;;26.40;91.10;;;;;;4219503;28;20561;-71
2022/08/12 01:53:43;;;;;;;2.78;2.50;;;26.30;91.20;;;;;;4226598;28;20213;-71
2022/08/12 01:55:47;;;;;;;2.80;2.45;;;26.30;91.20;;;;;;4227898;28;20218;-71
2022/08/12 01:58:01;;;;;;;2.45;2.25;;;26.30;91.30;;;;;;4217501;28;20254;-71
2022/08/12 02:00:07;;;;;;;2.75;2.55;;;26.30;91.20;;;;;;4212060;28;20218;-71
2022/08/12 02:02:16;;;;;;;2.97;2.65;;;26.30;91.00;;;;;;4224523;28;20210;-71
2022/08/12 02:11:56;;;;;;;2.45;2.25;;;26.30;91.20;;;;;;4217616;28;20202;-71
2022/08/12 02:14:16;;;;;;;2.78;2.50;;;26.30;91.30;;;;;;4220835;28;20221;-71
2022/08/12 02:16:31;;;;;;;2.60;2.40;;;26.30;91.70;;;;;;4216277;28;20250;-71
2022/08/12 02:18:44;;;;;;;3.05;2.50;;;26.30;91.80;;;;;;4227209;28;20563;-71
2022/08/12 02:20:52;;;;;;;2.85;2.63;;;26.20;91.60;;;;;;4218668;28;20275;-71
2022/08/12 02:22:56;;;;;;;3.05;2.55;;;26.20;91.50;;;;;;4215777;28;20209;-71
2022/08/12 02:25:06;;;;;;;2.78;2.40;;;26.30;91.50;;;;;;4218801;28;21114;-71
2022/08/12 02:27:10;;;;;;;4.28;2.83;;;26.30;91.30;;;;;;4213830;28;20214;-71
2022/08/12 02:29:14;;;;;;;3.67;2.80;;;26.20;91.40;;;;;;4211243;28;20276;-71
2022/08/12 02:31:17;;;;;;;3.15;2.60;;;26.20;91.30;;;;;;4214806;28;20275;-71
2022/08/12 02:33:20;;;;;;;2.40;2.20;;;26.20;91.70;;;;;;4217920;28;20650;-71
2022/08/12 02:35:26;;;;;;;2.47;2.25;;;26.20;91.70;;;;;;4216840;28;20213;-71
2022/08/12 02:37:31;;;;;;;2.75;2.55;;;26.20;91.90;;;;;;4218764;28;20258;-71
2022/08/12 02:39:35;;;;;;;2.60;2.40;;;26.20;91.90;;;;;;4220304;28;20313;-71
2022/08/12 02:41:44;;;;;;;4.72;2.60;;;26.20;91.80;;;;;;4230353;28;20229;-72
2022/08/12 02:43:51;;;;;;;3.90;2.60;;;26.20;92.00;;;;;;4215496;28;20255;-71
2022/08/12 02:46:00;;;;;;;3.20;2.67;;;26.20;91.90;;;;;;4225466;28;20229;-71
2022/08/12 02:48:07;;;;;;;3.83;3.00;;;26.20;92.00;;;;;;4213300;28;20240;-71
2022/08/12 02:50:13;;;;;;;2.63;2.42;;;26.20;91.90;;;;;;4226480;28;20289;-72
2022/08/12 02:52:16;;;;;;;2.80;2.60;;;26.20;92.10;;;;;;4226922;28;20625;-71
2022/08/12 02:54:20;;;;;;;2.60;2.40;;;26.20;92.00;;;;;;4226717;28;20221;-71
2022/08/12 02:56:22;;;;;;;2.72;2.47;;;26.20;92.10;;;;;;4217634;28;20251;-71
2022/08/12 02:58:25;;;;;;;2.78;2.47;;;26.10;92.00;;;;;;4219759;28;20209;-71
2022/08/12 03:00:28;;;;;;;2.55;2.35;;;26.20;92.30;;;;;;4221602;28;20930;-71
2022/08/12 03:02:35;;;;;;;3.45;2.40;;;26.20;92.30;;;;;;4218358;28;20222;-71
2022/08/12 03:04:46;;;;;;;2.67;2.45;;;26.10;92.30;;;;;;4224727;28;20610;-71
2022/08/12 03:06:58;;;;;;;3.75;2.38;;;26.10;92.20;;;;;;4227133;28;20209;-71
2022/08/12 03:09:02;;;;;;;3.13;2.55;;;26.10;92.20;;;;;;4222853;28;20249;-71
2022/08/12 03:11:13;;;;;;;2.70;2.50;;;26.10;92.40;;;;;;4226792;28;20271;-71
2022/08/12 03:13:17;;;;;;;2.75;2.50;;;26.10;92.20;;;;;;4226940;28;20262;-71
2022/08/12 03:15:22;;;;;;;2.80;2.60;;;26.10;92.40;;;;;;4226942;28;20218;-71
2022/08/12 03:17:30;;;;;;;2.47;2.28;;;26.10;92.30;;;;;;4225911;28;20658;-71
2022/08/12 03:19:35;;;;;;;2.90;2.63;;;26.10;92.30;;;;;;4221039;28;20209;-71
2022/08/12 03:21:38;;;;;;;2.67;2.45;;;26.10;92.60;;;;;;4220888;28;20255;-71
2022/08/12 03:23:42;;;;;;;3.05;2.67;;;26.10;92.50;;;;;;4218662;28;20268;-71
2022/08/12 03:25:44;;;;;;;3.78;2.40;;;26.10;92.50;;;;;;4218879;28;20218;-71
2022/08/12 03:27:50;;;;;;;4.25;2.83;;;26.10;92.50;;;;;;4225356;28;20703;-71
2022/08/12 03:29:55;;;;;;;2.53;2.33;;;26.10;92.40;;;;;;4213882;28;20238;-71
2022/08/12 03:31:59;;;;;;;2.58;2.38;;;26.00;92.50;;;;;;4219434;28;20222;-71
2022/08/12 03:34:05;;;;;;;3.67;2.45;;;26.10;93.00;;;;;;4219879;28;20669;-71
2022/08/12 03:36:09;;;;;;;3.38;2.60;;;26.10;92.50;;;;;;4218640;28;20210;-71
2022/08/12 03:38:14;;;;;;;3.75;2.60;;;26.00;92.40;;;;;;4215036;28;20263;-71
2022/08/12 03:42:39;;;;;;;3.75;2.53;;;26.10;92.60;;;;;;4219791;28;20209;-71
2022/08/12 04:01:14;;;;;;;3.17;2.88;;;26.00;92.80;;;;;;4219273;28;20194;-71
2022/08/12 04:05:37;;;;;;;2.70;2.50;;;25.90;92.90;;;;;;4220395;28;20610;-71
2022/08/12 04:07:41;;;;;;;3.35;3.05;;;25.90;93.30;;;;;;4226569;28;20300;-71
2022/08/12 04:09:46;;;;;;;3.33;2.80;;;26.00;92.90;;;;;;4216882;28;20836;-72
2022/08/12 04:14:11;;;;;;;3.33;3.03;;;25.90;93.00;;;;;;4220287;28;20202;-71
2022/08/12 04:16:14;;;;;;;2.95;2.75;;;26.00;93.10;;;;;;4221310;28;20219;-72
2022/08/12 04:18:16;;;;;;;4.45;2.72;;;25.90;93.00;;;;;;4223774;28;20205;-71
2022/08/12 04:20:21;;;;;;;3.33;2.70;;;25.90;93.10;;;;;;4225005;28;20263;-71
2022/08/12 04:22:29;;;;;;;3.72;2.63;;;25.90;92.80;;;;;;4226256;28;20274;-71
2022/08/12 04:24:34;;;;;;;4.00;2.92;;;25.90;93.00;;;;;;4222304;28;20217;-71
2022/08/12 04:26:38;;;;;;;4.00;2.80;;;25.90;93.10;;;;;;4221248;28;20207;-71
2022/08/12 04:28:40;;;;;;;3.42;2.90;;;25.90;93.20;;;;;;4220974;28;20632;-72
2022/08/12 04:30:43;;;;;;;2.97;2.40;;;25.90;93.10;;;;;;4220853;28;20233;-71
2022/08/12 04:32:47;;;;;;;3.25;2.60;;;25.90;93.10;;;;;;4216824;27;20263;-71
2022/08/12 04:34:50;;;;;;;2.67;2.45;;;25.90;93.20;;;;;;4228028;28;20293;-71
2022/08/12 04:36:52;;;;;;;3.03;2.50;;;25.90;93.70;;;;;;4216966;28;20218;-71
2022/08/12 04:38:55;;;;;;;4.72;3.00;;;25.90;93.20;;;;;;4223893;28;20226;-71
2022/08/12 04:41:00;;;;;;;4.72;3.30;;;25.90;93.40;;;;;;4220364;28;20217;-71
2022/08/12 04:43:03;;;;;;;3.33;2.85;;;25.90;93.40;;;;;;4219787;28;20243;-71
2022/08/12 04:45:06;;;;;;;5.22;2.92;;;25.90;93.50;;;;;;4216985;28;20291;-71
2022/08/12 04:47:11;;;;;;;4.35;3.15;;;25.80;93.40;;;;;;4225779;28;20214;-71
2022/08/12 04:49:14;;;;;;;3.70;3.00;;;25.90;93.30;;;;;;4214111;28;20218;-71
2022/08/12 04:51:17;;;;;;;4.03;2.80;;;25.90;93.40;;;;;;4223367;28;20241;-72
2022/08/12 04:53:19;;;;;;;3.53;2.88;;;25.90;93.30;;;;;;4221734;28;20266;-71
2022/08/12 04:55:23;;;;;;;4.35;3.15;;;25.90;93.10;;;;;;4219702;27;20209;-71
2022/08/12 04:57:26;;;;;;;2.95;2.60;;;25.90;93.40;;;;;;4219156;28;20214;-71
2022/08/12 04:59:30;;;;;;;4.00;2.90;;;25.90;93.60;;;;;;4217874;28;20218;-71
2022/08/12 05:01:32;;;;;;;3.92;2.75;;;25.90;93.50;;;;;;4217730;28;20290;-71
2022/08/12 05:03:36;;;;;;;3.25;2.95;;;25.90;93.70;;;;;;4217369;28;20290;-71
2022/08/12 05:05:40;;;;;;;3.03;2.72;;;25.90;93.50;;;;;;4220448;28;20661;-71
2022/08/12 05:07:42;;;;;;;4.05;3.00;;;25.80;93.50;;;;;;4213146;28;20222;-72
2022/08/12 05:09:45;;;;;;;3.85;2.70;;;25.80;93.30;;;;;;4217322;28;20218;-71
2022/08/12 05:11:48;;;;;;;4.13;3.10;;;25.80;93.60;;;;;;4222433;28;20236;-71
2022/08/12 05:13:58;;;;;;;3.33;2.40;;;25.80;93.60;;;;;;4227607;28;20209;-72
2022/08/12 05:16:01;;;;;;;3.72;2.83;;;25.80;93.60;;;;;;4214602;28;20275;-71
2022/08/12 05:18:04;;;;;;;3.47;2.78;;;25.80;93.20;;;;;;4219608;28;20222;-71
2022/08/12 05:20:07;;;;;;;5.50;3.25;;;25.80;93.60;;;;;;4218559;28;20218;-71
2022/08/12 05:22:09;;;;;;;4.15;2.58;;;25.80;93.60;;;;;;4219022;28;20226;-71
2022/08/12 05:24:12;;;;;;;3.38;2.85;;;25.80;93.30;;;;;;4220284;28;20290;-71
2022/08/12 05:26:14;;;;;;;3.53;2.80;;;25.80;93.60;;;;;;4222773;28;20263;-71
2022/08/12 05:28:18;;;;;;;3.55;3.08;;;25.80;93.50;;;;;;4216814;28;20246;-71
2022/08/12 05:30:21;;;;;;;4.30;3.30;;;25.80;93.50;;;;;;4218986;28;20806;-71
2022/08/12 05:32:24;;;;;;;4.18;3.08;;;25.80;93.70;;;;;;4222976;28;20214;-71
2022/08/12 05:34:27;;;;;;;4.35;2.78;;;25.80;93.60;;;;;;4215675;28;20214;-71
2022/08/12 05:36:30;;;;;;;4.70;3.30;;;25.80;93.80;;;;;;4215009;28;20276;-71
2022/08/12 05:40:52;;;;;;;5.35;3.10;;;25.80;93.90;;;;;;4218610;28;20194;-71
2022/08/12 05:42:54;;;;;;;3.90;2.85;;;25.80;93.90;;;;;;4218767;28;20262;-71
2022/08/12 05:44:57;;;;;;;3.50;2.97;;;25.80;94.20;;;;;;4218564;28;20237;-71
2022/08/12 05:47:00;;;;;;;3.13;2.80;;;25.80;93.90;;;;;;4220440;28;20287;-71
2022/08/12 05:49:04;;;;;;;3.28;2.70;;;25.80;93.90;;;;;;4213168;28;20259;-71
2022/08/12 05:51:07;;;;;;;3.70;2.85;;;25.80;93.90;;;;;;4224775;28;20283;-71
2022/08/12 05:53:09;;;;;;;4.57;2.97;;;25.80;93.90;;;;;;4217889;28;20211;-71
2022/08/12 05:55:12;;;;;;;5.03;3.25;;;25.80;93.90;;;;;;4221153;28;20266;-71
2022/08/12 05:57:14;;;;;;;3.92;3.35;;;25.80;94.30;;;;;;4222817;28;20270;-71
2022/08/12 05:59:17;;;;;;;4.65;2.90;;;25.80;93.90;;;;;;4219177;28;20213;-71
2022/08/12 06:01:19;;;;;;;3.63;2.97;;;25.80;93.90;;;;;;4222404;28;20210;-71
2022/08/12 06:03:24;;;;;;;4.78;3.13;;;25.80;93.90;;;;;;4226557;28;20312;-71
2022/08/12 06:05:26;;;;;;;5.50;3.30;;;25.80;93.70;;;;;;4221399;28;20217;-71
2022/08/12 06:07:28;;;;;;;3.55;3.00;;;25.80;94.10;;;;;;4221256;28;20210;-71
2022/08/12 06:09:31;;;;;;;4.93;3.13;;;25.80;94.00;;;;;;4221383;28;20274;-71
2022/08/12 06:11:33;;;;;;;4.50;3.03;;;25.80;94.10;;;;;;4226608;28;20237;-71
2022/08/12 06:13:37;;;;;;;4.80;3.40;;;25.80;94.00;;;;;;4221196;28;20213;-71
2022/08/12 06:15:40;;;;;;;5.60;3.20;;;25.80;94.20;;;;;;4225226;28;20266;-71
2022/08/12 06:17:42;;;;;;;4.47;2.78;;;25.80;94.10;;;;;;4221454;28;20218;-71
2022/08/12 06:19:47;;;;;;;6.05;3.58;;;25.80;94.20;;;;;;4220289;28;20217;-71
2022/08/12 06:21:50;;;;;;;7.60;3.28;;;25.80;94.10;;;;;;4215293;28;20266;-71
2022/08/12 06:23:55;;;;;;;4.20;2.97;;;25.70;93.90;;;;;;4220740;28;20259;-71
2022/08/12 06:25:57;;;;;;;5.88;3.13;;;25.80;93.60;;;;;;4220935;28;20657;-71
2022/08/12 06:28:02;;;;;;;5.53;2.95;;;25.80;94.00;;;;;;4225178;28;20225;-71
2022/08/12 06:30:05;;;;;;;3.67;2.80;;;25.80;94.20;;;;;;4226443;28;20217;-71
2022/08/12 06:32:08;;;;;;;5.50;3.20;;;25.80;94.10;;;;;;4221893;27;20234;-71
2022/08/12 06:34:13;;;;;;;5.47;3.20;;;25.80;94.20;;;;;;4225584;28;20214;-71
2022/08/12 06:36:19;;;;;;;5.13;3.28;;;25.80;94.20;;;;;;4225179;28;20241;-71
2022/08/12 06:38:23;;;;;;;4.80;2.90;;;25.80;94.20;;;;;;4225046;28;20264;-71
2022/08/12 06:42:50;;;;;;;5.57;3.45;;;25.80;94.30;;;;;;4215507;28;20274;-71
2022/08/12 06:44:52;;;;;;;4.38;3.17;;;25.80;94.10;;;;;;4224567;28;20704;-74
2022/08/12 06:46:54;;;;;;;3.83;3.05;;;25.80;94.20;;;;;;4220681;28;20262;-73
2022/08/12 06:48:58;;;;;;;3.85;3.00;;;25.80;94.30;;;;;;4218592;28;20700;-74
2022/08/12 06:51:02;;;;;;;4.88;3.25;;;25.80;94.30;;;;;;4220976;28;20290;-73
2022/08/12 06:53:08;;;;;;;4.30;3.00;;;25.80;94.50;;;;;;4225053;28;20209;-74
2022/08/12 06:55:14;;;;;;;4.80;3.17;;;25.80;94.60;;;;;;4220651;28;20217;-74
2022/08/12 06:57:17;;;;;;;3.38;2.92;;;25.80;94.20;;;;;;4224477;28;20244;-74
2022/08/12 06:59:20;;;;;;;4.55;2.97;;;25.80;94.60;;;;;;4214221;28;20218;-73
2022/08/12 07:01:22;;;;;;;4.95;3.10;;;25.80;94.50;;;;;;4225267;28;20255;-74
2022/08/12 07:03:27;;;;;;;5.88;3.03;;;25.80;94.20;;;;;;4225117;28;20739;-74
2022/08/12 07:05:30;;;;;;;4.68;3.45;;;25.80;94.30;;;;;;4223801;28;20222;-74
2022/08/12 07:07:32;;;;;;;10.25;4.30;;;25.80;94.30;;;;;;4220661;28;20275;-73
2022/08/12 07:09:36;;;;;;;10.55;4.15;;;25.70;93.50;;;;;;4223066;28;20210;-74
2022/08/12 07:11:43;;;;;;;9.10;4.30;;;25.60;92.80;;;;;;4222840;28;20238;-74
2022/08/12 07:13:49;;;;;;;7.50;4.70;;;25.60;93.00;;;;;;4221161;28;20259;-75
2022/08/12 07:15:55;;;;;;;10.98;5.20;;;25.40;91.90;;;;;;4222054;28;20298;-75
2022/08/12 07:18:05;;;;;;;12.32;4.75;;;25.30;92.40;;;;;;4227539;28;20217;-75
2022/08/12 07:20:10;;;;;;;9.68;4.80;;;25.20;92.20;;;;;;4219627;28;20266;-74
2022/08/12 07:22:12;;;;;;;7.00;4.68;;;25.20;92.40;;;;;;4215952;28;20215;-72
2022/08/12 07:24:15;;;;;;;8.27;4.70;;;25.20;91.80;;;;;;4217822;28;20222;-73
2022/08/12 07:26:20;;;;;;;11.82;4.60;;;25.20;91.80;;;;;;4221496;28;20239;-73
2022/08/12 07:28:26;;;;;;;6.50;4.50;;;25.20;91.70;;;;;;4227844;28;20214;-74
2022/08/12 07:30:30;;;;;;;10.40;4.55;;;25.20;91.50;;;;;;4218005;28;20279;-74
2022/08/12 07:32:32;;;;;;;9.25;4.70;;;25.20;91.50;;;;;;4219018;28;20230;-75
2022/08/12 07:34:36;;;;;;;7.97;4.43;;;25.20;91.40;;;;;;4221402;28;20222;-75
2022/08/12 07:36:38;;;;;;;5.78;4.72;;;25.20;91.10;;;;;;4225368;28;20217;-75
2022/08/12 07:38:44;;;;;;;8.68;4.25;;;25.20;91.00;;;;;;4222785;28;20259;-75
2022/08/12 07:40:46;;;;;;;9.75;4.60;;;25.20;91.10;;;;;;4225264;28;20209;-74
2022/08/12 07:42:51;;;;;;;8.60;4.47;;;25.10;90.90;;;;;;4224627;27;20254;-74
2022/08/12 07:44:54;;;;;;;15.55;5.50;;;25.20;91.20;;;;;;4224671;27;20225;-74
2022/08/12 07:46:56;;;;;;;11.80;5.20;;;25.30;91.80;;;;;;4221196;27;20214;-75
2022/08/12 07:49:04;;;;;;;11.82;5.72;;;25.20;92.30;;;;;;4225110;28;20284;-72
2022/08/12 07:51:07;;;;;;;12.00;4.88;;;25.30;92.60;;;;;;4224014;27;20262;-72
2022/08/12 07:53:10;;;;;;;7.68;4.90;;;25.20;93.00;;;;;;4224768;27;20251;-74
2022/08/12 07:55:13;;;;;;;9.05;4.35;;;25.30;92.50;;;;;;4222713;28;20275;-74
2022/08/12 07:57:16;;;;;;;11.40;5.38;;;25.30;92.40;;;;;;4227721;28;20267;-74
2022/08/12 07:59:19;;;;;;;13.07;5.45;;;25.40;92.70;;;;;;4228712;28;20270;-73
2022/08/12 08:01:22;;;;;;;11.13;5.13;;;25.40;92.80;;;;;;4222777;27;20264;-71
2022/08/12 08:03:24;;;;;;;8.38;4.65;;;25.40;92.60;;;;;;4223895;28;20217;-72
2022/08/12 08:05:30;;;;;;;13.20;4.97;;;25.40;93.00;;;;;;4224234;28;20665;-73
2022/08/12 08:07:32;;;;;;;10.32;5.60;;;25.40;92.60;;;;;;4223249;28;20266;-73
2022/08/12 08:09:35;;;;;;;7.35;5.18;;;25.40;92.70;;;;;;4226673;28;20282;-74
2022/08/12 08:14:00;;;;;;;6.65;4.75;;;25.50;92.70;;;;;;4223873;28;20227;-72
2022/08/12 08:16:04;;;;;;;13.95;4.80;;;25.50;92.50;;;;;;4225407;28;20623;-74
2022/08/12 08:18:09;;;;;;;8.98;4.50;;;25.50;92.20;;;;;;4225422;28;20210;-72
2022/08/12 08:20:12;;;;;;;8.00;4.28;;;25.60;92.30;;;;;;4219290;28;20214;-73
2022/08/12 08:22:15;;;;;;;10.52;4.82;;;25.70;92.30;;;;;;4223211;28;20210;-75
2022/08/12 08:24:17;;;;;;;10.98;5.07;;;25.70;92.20;;;;;;4221071;28;20251;-75
2022/08/12 08:26:24;;;;;;;8.75;4.70;;;25.80;93.10;;;;;;4226349;27;20238;-74
2022/08/12 08:28:27;;;;;;;9.30;4.45;;;25.80;92.40;;;;;;4221658;28;20221;-73
2022/08/12 08:30:30;;;;;;;10.70;4.25;;;25.90;92.20;;;;;;4221073;27;20214;-73
2022/08/12 08:32:34;;;;;;;10.00;4.47;;;26.00;91.80;;;;;;4227610;27;20241;-75
2022/08/12 08:34:36;;;;;;;13.38;4.95;;;25.90;91.90;;;;;;4223955;28;20213;-74
2022/08/12 08:36:39;;;;;;;12.88;4.75;;;25.90;91.80;;;;;;4232447;27;20621;-77
2022/08/12 08:38:43;;;;;;;8.98;4.63;;;25.90;91.90;;;;;;4225506;27;20247;-74
2022/08/12 08:43:06;;;;;;;9.90;4.30;;;26.00;91.70;;;;;;4226439;27;20185;-75
2022/08/12 08:45:11;;;;;;;9.32;4.68;;;26.00;91.90;;;;;;4221362;28;20270;-75
2022/08/12 08:47:14;;;;;;;11.02;4.25;;;26.00;91.60;;;;;;4224179;27;20239;-74
2022/08/12 08:49:18;;;;;;;8.30;4.50;;;26.00;91.70;;;;;;4219882;28;20292;-73
2022/08/12 08:51:25;;;;;;;10.18;4.60;;;26.10;91.80;;;;;;4213792;28;20218;-74
2022/08/12 08:53:27;;;;;;;10.13;4.63;;;26.10;91.70;;;;;;4218852;27;20233;-74
2022/08/12 08:55:29;;;;;;;9.13;4.05;;;26.20;91.20;;;;;;4217448;27;22158;-73
2022/08/12 08:57:34;;;;;;;11.30;4.47;;;26.30;90.60;;;;;;4221665;27;20217;-72
2022/08/12 08:59:37;;;;;;;6.70;3.90;;;26.40;90.90;;;;;;4220987;28;20267;-72
2022/08/12 09:01:40;;;;;;;8.68;4.18;;;26.40;91.30;;;;;;4220149;27;20310;-72
2022/08/12 09:03:42;;;;;;;8.82;4.53;;;26.50;91.50;;;;;;4225389;28;20274;-72
2022/08/12 09:05:46;;;;;;;10.82;4.55;;;26.50;90.90;;;;;;4222901;27;20214;-74
2022/08/12 09:07:50;;;;;;;10.02;4.15;;;26.60;90.70;;;;;;4222532;27;20244;-73
2022/08/12 09:09:53;;;;;;;7.43;3.92;;;26.60;90.70;;;;;;4224850;27;20210;-74
2022/08/12 09:14:15;;;;;;;11.13;4.28;;;26.60;90.70;;;;;;4223765;28;20870;-74
2022/08/12 09:16:18;;;;;;;6.82;3.70;;;26.70;90.40;;;;;;4225471;27;20243;-74
2022/08/12 09:18:21;;;;;;;5.95;3.20;;;26.80;89.80;;;;;;4220536;27;20263;-73
2022/08/12 09:20:25;;;;;;;10.18;3.97;;;26.70;90.20;;;;;;4225017;27;20279;-74
2022/08/12 09:22:29;;;;;;;9.07;3.92;;;26.70;90.20;;;;;;4220094;28;20247;-74
2022/08/12 09:24:31;;;;;;;7.85;3.90;;;26.70;90.20;;;;;;4223190;28;20213;-75
2022/08/12 09:26:34;;;;;;;6.18;3.53;;;26.80;90.10;;;;;;4221549;27;21063;-74
2022/08/12 09:28:37;;;;;;;5.97;3.47;;;26.90;88.80;;;;;;4227006;28;20217;-74
2022/08/12 09:30:43;;;;;;;5.95;3.88;;;27.00;88.20;;;;;;4221172;27;20214;-74
2022/08/12 09:32:49;;;;;;;7.20;3.83;;;26.90;88.90;;;;;;4218660;27;20589;-74
2022/08/12 09:34:53;;;;;;;6.82;3.40;;;26.80;88.50;;;;;;4221855;28;20229;-75
2022/08/12 09:36:56;;;;;;;4.43;3.47;;;26.90;88.00;;;;;;4222016;27;20214;-74
2022/08/12 09:39:01;;;;;;;11.15;3.28;;;27.00;87.40;;;;;;4220574;27;20622;-74
2022/08/12 09:41:03;;;;;;;6.47;3.15;;;27.00;88.00;;;;;;4221433;27;20247;-74
2022/08/12 09:45:25;;;;;;;6.63;3.33;;;27.00;86.90;;;;;;4220592;28;20237;-74
2022/08/12 09:47:27;;;;;;;6.65;3.22;;;27.20;85.60;;;;;;4218933;28;20281;-73
2022/08/12 09:49:35;;;;;;;8.52;3.35;;;27.20;85.10;;;;;;4221718;28;20262;-73
2022/08/12 09:51:37;;;;;;;6.95;3.20;;;27.30;82.90;;;;;;4219007;28;20209;-73
2022/08/12 09:53:40;;;;;;;8.90;3.50;;;27.30;82.50;;;;;;4220732;27;21535;-74
2022/08/12 09:55:46;;;;;;;4.20;3.15;;;27.20;83.00;;;;;;4219587;27;20259;-76
2022/08/12 09:57:49;;;;;;;6.78;3.20;;;27.20;82.20;;;;;;4219728;28;20218;-75
2022/08/12 09:59:51;;;;;;;5.25;3.22;;;27.30;82.50;;;;;;4214704;27;21600;-75
2022/08/12 10:01:54;;;;;;;6.90;3.30;;;27.30;83.20;;;;;;4215853;28;20213;-73
2022/08/12 10:03:57;;;;;;;6.10;2.83;;;27.30;81.40;;;;;;4219600;28;20235;-74
2022/08/12 10:06:01;;;;;;;7.10;3.22;;;27.40;79.50;;;;;;4227307;27;20213;-74
2022/08/12 10:08:09;;;;;;;10.77;3.08;;;27.40;80.20;;;;;;4223320;27;20637;-74
2022/08/12 10:10:11;;;;;;;6.65;2.58;;;27.40;80.00;;;;;;4224930;27;20263;-73
2022/08/12 10:14:35;;;;;;;7.88;2.95;;;27.60;79.20;;;;;;4223269;27;20588;-74
2022/08/12 10:16:42;;;;;;;4.03;2.80;;;27.80;78.30;;;;;;4224892;28;20217;-74
2022/08/12 10:18:47;;;;;;;4.70;2.75;;;27.70;79.10;;;;;;4224457;28;20253;-73
2022/08/12 10:20:52;;;;;;;4.43;2.97;;;27.60;78.10;;;;;;4215128;28;20267;-73
2022/08/12 10:23:00;;;;;;;3.95;2.70;;;27.60;78.70;;;;;;4218401;28;20205;-74
2022/08/12 10:29:45;;;;;;;5.13;2.88;;;27.90;76.20;;;;;;4216718;28;20209;-74
2022/08/12 10:31:50;;;;;;;5.18;3.10;;;27.80;75.80;;;;;;4216774;28;20766;-73
2022/08/12 10:33:52;;;;;;;6.53;3.03;;;27.80;75.10;;;;;;4232671;27;20586;-73
2022/08/12 10:35:56;;;;;;;4.43;3.05;;;27.80;74.80;;;;;;4234693;27;20303;-74
2022/08/12 10:38:01;;;;;;;5.47;2.90;;;28.00;74.80;;;;;;4228193;27;20262;-74
2022/08/12 10:40:04;;;;;;;5.95;2.83;;;28.00;74.60;;;;;;4222498;28;20266;-73
2022/08/12 10:44:30;;;;;;;3.75;2.92;;;28.00;74.40;;;;;;4220590;28;20186;-74
2022/08/12 10:46:34;;;;;;;6.50;3.05;;;28.00;74.40;;;;;;4224066;28;20237;-75
2022/08/12 10:48:37;;;;;;;10.20;3.30;;;28.00;74.80;;;;;;4218259;28;20214;-74
2022/08/12 10:50:40;;;;;;;4.07;3.05;;;27.90;76.00;;;;;;4216228;28;20216;-74
2022/08/12 10:52:47;;;;;;;5.82;3.00;;;27.90;77.20;;;;;;4215189;28;20214;-74
2022/08/12 10:54:50;;;;;;;5.20;2.47;;;27.90;81.00;;;;;;4224277;28;20267;-74
2022/08/12 10:56:52;;;;;;;5.10;2.47;;;27.80;81.30;;;;;;4215681;28;20218;-74
2022/08/12 10:58:56;;;;;;;4.88;2.67;;;27.70;82.20;;;;;;4216394;28;20221;-73
2022/08/12 11:01:04;;;;;;;5.80;2.75;;;27.70;80.10;;;;;;4221322;28;20205;-73
2022/08/12 11:03:08;;;;;;;7.47;2.60;;;27.60;79.20;;;;;;4223927;28;20612;-73
2022/08/12 11:05:12;;;;;;;5.63;2.70;;;27.50;82.60;;;;;;4224582;27;20725;-74
2022/08/12 11:07:15;;;;;;;3.95;2.70;;;27.50;83.50;;;;;;4229347;27;20218;-74
2022/08/12 11:09:18;;;;;;;3.97;2.70;;;27.40;83.10;;;;;;4229677;28;20225;-73
2022/08/12 11:11:20;;;;;;;3.67;2.92;;;27.40;84.50;;;;;;4227443;28;20259;-74
2022/08/12 11:13:23;;;;;;;3.35;2.55;;;27.30;84.00;;;;;;4223203;28;20225;-74
2022/08/12 11:15:25;;;;;;;4.68;2.85;;;27.40;85.40;;;;;;4227835;27;20833;-74
2022/08/12 11:17:30;;;;;;;3.83;2.72;;;27.30;84.90;;;;;;4219102;27;20619;-74
2022/08/12 11:19:36;;;;;;;4.50;2.78;;;27.20;85.30;;;;;;4216111;28;20294;-74
2022/08/12 11:21:38;;;;;;;3.20;2.90;;;27.20;83.80;;;;;;4227827;27;20209;-74
2022/08/12 11:23:41;;;;;;;5.35;2.90;;;27.20;85.00;;;;;;4227431;28;20968;-74
2022/08/12 11:25:43;;;;;;;3.75;3.08;;;27.20;83.10;;;;;;4227339;27;20222;-74
2022/08/12 11:27:45;;;;;;;4.82;2.97;;;27.10;83.60;;;;;;4222623;27;20610;-74
2022/08/12 11:29:48;;;;;;;3.55;2.80;;;27.10;83.20;;;;;;4223688;27;20296;-74
2022/08/12 11:31:51;;;;;;;3.47;2.63;;;27.10;82.70;;;;;;4221061;27;20283;-73
2022/08/12 11:33:55;;;;;;;5.03;2.90;;;27.10;82.80;;;;;;4225860;27;20259;-74
2022/08/12 11:36:05;;;;;;;3.65;2.90;;;27.10;82.50;;;;;;4217593;27;20272;-74
2022/08/12 11:38:07;;;;;;;4.13;2.67;;;27.10;82.60;;;;;;4222068;28;20217;-74
2022/08/12 11:40:10;;;;;;;3.72;2.70;;;27.10;81.60;;;;;;4220014;28;20256;-74
2022/08/12 11:42:12;;;;;;;4.53;2.60;;;27.10;81.20;;;;;;4219539;27;20214;-73
2022/08/12 11:44:16;;;;;;;4.07;2.80;;;27.00;82.20;;;;;;4218087;28;20210;-73
2022/08/12 11:46:18;;;;;;;3.97;2.78;;;27.00;82.10;;;;;;4216124;28;20233;-74
2022/08/12 11:48:21;;;;;;;3.60;2.75;;;27.10;80.90;;;;;;4214584;27;20623;-74
2022/08/12 11:50:25;;;;;;;3.20;2.90;;;27.00;81.30;;;;;;4222116;28;20283;-74
2022/08/12 11:52:27;;;;;;;5.05;2.90;;;27.00;83.00;;;;;;4221037;28;20218;-73
2022/08/12 11:54:30;;;;;;;2.80;2.55;;;27.00;81.60;;;;;;4227526;27;20226;-73
2022/08/12 11:56:32;;;;;;;3.67;2.90;;;27.00;81.40;;;;;;4226947;28;20218;-73
2022/08/12 11:58:35;;;;;;;3.40;3.05;;;27.00;82.80;;;;;;4227203;27;20658;-74
2022/08/12 12:00:37;;;;;;;3.10;2.80;;;27.00;82.30;;;;;;4221509;28;20263;-74
2022/08/12 12:02:39;;;;;;;4.45;2.97;;;27.00;83.50;;;;;;4222846;27;20333;-73
2022/08/12 12:04:42;;;;;;;3.53;2.67;;;27.00;83.00;;;;;;4225585;27;20219;-74
2022/08/12 12:06:45;;;;;;;4.25;2.85;;;27.00;82.30;;;;;;4225604;28;20218;-74
2022/08/12 12:08:48;;;;;;;3.97;2.60;;;27.00;83.80;;;;;;4228129;27;20271;-74
2022/08/12 12:10:52;;;;;;;3.63;2.70;;;27.00;83.60;;;;;;4222335;27;20313;-74
2022/08/12 12:12:54;;;;;;;3.45;2.88;;;27.00;82.20;;;;;;4216387;28;20210;-73
2022/08/12 12:14:57;;;;;;;3.05;2.72;;;27.00;82.30;;;;;;4217898;28;20264;-73
2022/08/12 12:16:59;;;;;;;3.40;2.50;;;27.00;82.20;;;;;;4224733;27;20255;-74
2022/08/12 12:19:04;;;;;;;3.45;2.75;;;27.00;83.40;;;;;;4222743;27;20714;-74
2022/08/12 12:21:08;;;;;;;3.90;2.60;;;27.00;82.30;;;;;;4222203;28;20282;-73
2022/08/12 12:23:12;;;;;;;3.65;2.53;;;27.00;82.80;;;;;;4220835;27;20218;-74
2022/08/12 12:25:14;;;;;;;4.22;2.63;;;27.00;82.30;;;;;;4216460;27;20211;-74
2022/08/12 12:27:18;;;;;;;3.03;2.40;;;27.10;84.40;;;;;;4217363;28;21000;-74
2022/08/12 12:29:20;;;;;;;3.65;3.08;;;27.00;82.50;;;;;;4225272;27;20239;-74
2022/08/12 12:31:23;;;;;;;3.85;2.70;;;27.00;82.70;;;;;;4220946;28;20275;-74